Time;durP1;ratioP1;P1;durP2;ratioP2;P2;SDS_P1;SDS_P2;PMS_P1;PMS_P2;Temp;Humidity;BMP_temperature;BMP_pressure;BME280_temperature;BME280_humidity;BME280_pressure;Samples;Min_cycle;Max_cycle;Signal;HPM_P1;HPM_P2
2024/03/05 00:01:31;;;;;;;;;;;11.20;83.80;;;;;;5019824;28;84524;-43
2024/03/05 00:03:57;;;;;;;;;;;11.20;83.80;;;;;;5012595;28;82065;-43
2024/03/05 00:06:23;;;;;;;;;;;11.20;83.80;;;;;;5005980;28;82023;-42
2024/03/05 00:08:49;;;;;;;;;;;11.10;83.90;;;;;;5007212;28;81838;-42
2024/03/05 00:11:14;;;;;;;;;;;11.10;83.90;;;;;;5009170;28;82808;-45
2024/03/05 00:13:40;;;;;;;;;;;11.10;83.80;;;;;;5017241;28;83056;-44
2024/03/05 00:16:05;;;;;;;;;;;11.10;83.80;;;;;;4995668;28;82002;-43
2024/03/05 00:18:31;;;;;;;;;;;11.10;83.80;;;;;;5007452;28;81392;-43
2024/03/05 00:20:57;;;;;;;;;;;11.10;83.80;;;;;;5013301;28;82639;-43
2024/03/05 00:23:23;;;;;;;;;;;11.10;83.80;;;;;;5012445;28;81977;-43
2024/03/05 00:25:48;;;;;;;;;;;11.00;83.80;;;;;;5007266;28;83742;-43
2024/03/05 00:28:14;;;;;;;;;;;11.00;83.70;;;;;;5007558;28;82642;-43
2024/03/05 00:30:39;;;;;;;;;;;11.00;83.80;;;;;;5014253;28;82256;-43
2024/03/05 00:33:06;;;;;;;;;;;11.00;83.70;;;;;;5009574;28;82562;-43
2024/03/05 00:35:31;;;;;;;;;;;11.00;83.80;;;;;;5011276;28;81942;-43
2024/03/05 00:37:57;;;;;;;;;;;11.00;83.70;;;;;;5000190;28;82755;-43
2024/03/05 00:40:22;;;;;;;;;;;11.00;83.80;;;;;;5005507;28;82643;-43
2024/03/05 00:42:48;;;;;;;;;;;11.00;83.80;;;;;;5008065;28;82989;-43
2024/03/05 00:45:17;;;;;;;;;;;11.00;83.70;;;;;;5014607;28;81906;-43
2024/03/05 00:47:43;;;;;;;;;;;11.00;83.70;;;;;;5004644;28;82615;-43
2024/03/05 00:50:12;;;;;;;;;;;10.90;83.60;;;;;;5010958;28;83904;-43
2024/03/05 00:52:38;;;;;;;;;;;10.90;83.70;;;;;;5010370;28;83404;-44
2024/03/05 00:55:07;;;;;;;;;;;10.90;83.70;;;;;;5012560;28;82720;-43
2024/03/05 00:57:36;;;;;;;;;;;10.90;83.60;;;;;;5005284;28;83296;-43
2024/03/05 01:00:02;;;;;;;;;;;10.90;83.70;;;;;;5000715;28;82625;-43
2024/03/05 01:02:28;;;;;;;;;;;10.90;83.70;;;;;;5008108;28;81980;-43
2024/03/05 01:04:54;;;;;;;;;;;10.90;83.60;;;;;;5016947;28;84316;-43
2024/03/05 01:07:19;;;;;;;;;;;10.90;83.70;;;;;;5022524;28;82839;-43
2024/03/05 01:09:47;;;;;;;;;;;10.90;83.70;;;;;;4998614;28;81966;-44
2024/03/05 01:12:13;;;;;;;;;;;10.90;83.70;;;;;;5003403;28;82224;-43
2024/03/05 01:14:40;;;;;;;;;;;10.80;83.60;;;;;;5003936;28;83552;-43
2024/03/05 01:17:08;;;;;;;;;;;10.80;83.70;;;;;;5014505;28;83544;-43
2024/03/05 01:19:34;;;;;;;;;;;10.80;83.80;;;;;;5003347;28;83581;-43
2024/03/05 01:22:00;;;;;;;;;;;10.80;83.70;;;;;;5003860;28;81979;-44
2024/03/05 01:24:25;;;;;;;;;;;10.80;83.70;;;;;;5002944;28;82611;-44
2024/03/05 01:26:51;;;;;;;;;;;10.80;83.60;;;;;;5017708;28;82470;-43
2024/03/05 01:29:17;;;;;;;;;;;10.70;83.80;;;;;;5018335;28;82028;-43
2024/03/05 01:31:44;;;;;;;;;;;10.70;83.70;;;;;;5000140;28;82027;-43
2024/03/05 01:34:10;;;;;;;;;;;10.70;83.80;;;;;;5007039;28;83566;-43
2024/03/05 01:36:36;;;;;;;;;;;10.70;83.70;;;;;;5012182;28;82923;-43
2024/03/05 01:39:03;;;;;;;;;;;10.70;83.70;;;;;;5010422;28;83404;-44
2024/03/05 01:41:28;;;;;;;;;;;10.70;83.70;;;;;;5001889;28;81846;-43
2024/03/05 01:43:54;;;;;;;;;;;10.70;83.70;;;;;;5005395;28;81806;-43
2024/03/05 01:46:20;;;;;;;;;;;10.70;83.60;;;;;;5014215;28;82680;-43
2024/03/05 01:48:45;;;;;;;;;;;10.70;83.80;;;;;;5020602;28;82047;-42
2024/03/05 01:51:14;;;;;;;;;;;10.60;83.60;;;;;;5008556;28;81836;-42
2024/03/05 01:53:41;;;;;;;;;;;10.60;83.60;;;;;;5003679;28;83317;-44
2024/03/05 01:56:07;;;;;;;;;;;10.60;83.60;;;;;;5008062;28;81191;-42
2024/03/05 01:58:33;;;;;;;;;;;10.60;83.50;;;;;;5018625;28;82587;-43
2024/03/05 02:01:02;;;;;;;;;;;10.60;83.70;;;;;;5021825;28;81944;-44
2024/03/05 02:03:28;;;;;;;;;;;10.60;83.60;;;;;;4998742;28;82832;-43
2024/03/05 02:05:56;;;;;;;;;;;10.50;84.20;;;;;;5009903;28;82372;-43
2024/03/05 02:08:22;;;;;;;;;;;10.60;83.60;;;;;;5006383;28;82032;-43
2024/03/05 02:10:48;;;;;;;;;;;10.50;83.60;;;;;;5009135;28;82192;-43
2024/03/05 02:13:14;;;;;;;;;;;10.50;83.50;;;;;;5007172;28;83237;-43
2024/03/05 02:15:39;;;;;;;;;;;10.50;83.70;;;;;;5007391;28;82011;-42
2024/03/05 02:18:07;;;;;;;;;;;10.50;83.60;;;;;;5016099;28;81819;-44
2024/03/05 02:20:33;;;;;;;;;;;10.50;83.50;;;;;;5020256;28;81205;-43
2024/03/05 02:22:59;;;;;;;;;;;10.50;83.50;;;;;;5018529;28;82454;-43
2024/03/05 02:25:25;;;;;;;;;;;10.50;83.70;;;;;;5011321;28;83546;-43
2024/03/05 02:27:51;;;;;;;;;;;10.50;83.50;;;;;;5012594;28;82921;-43
2024/03/05 02:30:16;;;;;;;;;;;10.40;83.50;;;;;;5015543;28;82794;-43
2024/03/05 02:32:43;;;;;;;;;;;10.40;83.60;;;;;;5024917;28;82622;-43
2024/03/05 02:35:09;;;;;;;;;;;10.40;83.60;;;;;;5002062;28;82890;-43
2024/03/05 02:37:40;;;;;;;;;;;10.40;83.60;;;;;;5011998;28;82387;-43
2024/03/05 02:40:08;;;;;;;;;;;10.40;83.60;;;;;;5010545;28;82728;-42
2024/03/05 02:42:37;;;;;;;;;;;10.40;83.60;;;;;;5020312;28;83231;-43
2024/03/05 02:45:05;;;;;;;;;;;10.40;83.50;;;;;;5016505;28;82796;-44
2024/03/05 02:47:34;;;;;;;;;;;10.30;83.50;;;;;;5006363;28;81987;-43
2024/03/05 02:50:00;;;;;;;;;;;10.40;83.70;;;;;;5011917;28;81833;-42
2024/03/05 02:52:28;;;;;;;;;;;10.30;83.60;;;;;;5014582;28;84431;-43
2024/03/05 02:54:53;;;;;;;;;;;10.40;83.70;;;;;;5019229;28;82840;-43
2024/03/05 02:57:19;;;;;;;;;;;10.40;83.50;;;;;;5002797;28;83047;-42
2024/03/05 02:59:44;;;;;;;;;;;10.30;83.50;;;;;;5005080;28;82664;-43
2024/03/05 03:02:10;;;;;;;;;;;10.40;83.60;;;;;;5012529;28;81967;-43
2024/03/05 03:04:35;;;;;;;;;;;10.30;83.50;;;;;;5016294;28;82371;-43
2024/03/05 03:07:01;;;;;;;;;;;10.30;83.60;;;;;;5006488;28;82013;-43
2024/03/05 03:09:27;;;;;;;;;;;10.30;83.70;;;;;;5003493;28;82032;-44
2024/03/05 03:11:52;;;;;;;;;;;10.30;83.50;;;;;;5014098;28;81858;-42
2024/03/05 03:14:18;;;;;;;;;;;10.30;83.60;;;;;;5016734;28;82188;-43
2024/03/05 03:16:43;;;;;;;;;;;10.20;83.80;;;;;;5018865;28;82876;-43
2024/03/05 03:19:12;;;;;;;;;;;10.20;83.70;;;;;;5001482;28;82470;-43
2024/03/05 03:21:37;;;;;;;;;;;10.20;83.70;;;;;;5013487;28;82541;-44
2024/03/05 03:24:03;;;;;;;;;;;10.20;83.70;;;;;;5015533;28;82481;-42
2024/03/05 03:26:29;;;;;;;;;;;10.20;83.70;;;;;;5020051;28;82006;-44
2024/03/05 03:28:55;;;;;;;;;;;10.20;83.70;;;;;;4998154;28;81988;-43
2024/03/05 03:31:21;;;;;;;;;;;10.10;83.70;;;;;;5010068;28;83534;-42
2024/03/05 03:33:47;;;;;;;;;;;10.10;83.70;;;;;;5013906;28;81237;-43
2024/03/05 03:36:23;;;;;;;;;;;10.10;83.60;;;;;;5009328;28;81904;-42
2024/03/05 03:38:49;;;;;;;;;;;10.10;83.60;;;;;;5007031;28;82390;-42
2024/03/05 03:41:14;;;;;;;;;;;10.00;83.50;;;;;;5005172;28;83018;-42
2024/03/05 03:43:40;;;;;;;;;;;10.10;83.50;;;;;;5011083;28;82695;-44
2024/03/05 03:46:06;;;;;;;;;;;10.00;83.40;;;;;;5013890;28;82036;-43
2024/03/05 03:48:31;;;;;;;;;;;10.00;83.30;;;;;;5016307;28;82499;-43
2024/03/05 03:50:57;;;;;;;;;;;10.00;83.30;;;;;;5002833;28;82595;-43
2024/03/05 03:53:22;;;;;;;;;;;10.00;83.40;;;;;;5003499;28;81986;-42
2024/03/05 03:55:48;;;;;;;;;;;9.90;83.30;;;;;;5013598;28;81967;-44
2024/03/05 03:58:14;;;;;;;;;;;9.90;83.50;;;;;;5012569;28;82715;-43
2024/03/05 04:00:40;;;;;;;;;;;10.00;83.50;;;;;;5004080;28;82874;-43
2024/03/05 04:03:06;;;;;;;;;;;10.00;83.40;;;;;;5006889;28;81978;-43
2024/03/05 04:05:32;;;;;;;;;;;9.90;83.50;;;;;;5008659;28;82947;-43
2024/03/05 04:07:57;;;;;;;;;;;9.90;83.40;;;;;;5004353;28;82726;-44
2024/03/05 04:10:23;;;;;;;;;;;9.90;83.60;;;;;;5020333;28;83306;-43
2024/03/05 04:12:49;;;;;;;;;;;9.90;83.60;;;;;;4995293;28;82458;-42
2024/03/05 04:15:18;;;;;;;;;;;9.90;83.70;;;;;;5008302;28;81888;-43
2024/03/05 04:17:44;;;;;;;;;;;9.80;83.60;;;;;;5017790;28;83779;-42
2024/03/05 04:20:10;;;;;;;;;;;9.80;83.70;;;;;;5022343;28;81779;-43
2024/03/05 04:22:39;;;;;;;;;;;9.80;83.70;;;;;;4997190;28;82318;-43
2024/03/05 04:25:05;;;;;;;;;;;9.80;83.80;;;;;;5007886;28;82562;-43
2024/03/05 04:27:31;;;;;;;;;;;9.80;83.80;;;;;;5011900;28;82850;-42
2024/03/05 04:29:57;;;;;;;;;;;9.80;83.80;;;;;;5014181;28;84584;-42
2024/03/05 04:32:26;;;;;;;;;;;9.80;83.90;;;;;;5013376;28;81980;-43
2024/03/05 04:35:00;;;;;;;;;;;9.80;84.00;;;;;;4998352;28;82696;-42
2024/03/05 04:37:32;;;;;;;;;;;9.70;83.90;;;;;;5006163;28;84050;-42
2024/03/05 04:39:57;;;;;;;;;;;9.80;84.00;;;;;;5006510;28;82182;-44
2024/03/05 04:42:24;;;;;;;;;;;9.70;83.90;;;;;;5013640;28;81737;-43
2024/03/05 04:44:51;;;;;;;;;;;9.70;84.00;;;;;;5000045;28;82549;-43
2024/03/05 04:47:17;;;;;;;;;;;9.70;84.00;;;;;;5010130;28;81184;-43
2024/03/05 04:49:42;;;;;;;;;;;9.70;84.00;;;;;;5011599;28;83438;-42
2024/03/05 04:52:09;;;;;;;;;;;9.70;84.10;;;;;;5017690;28;81907;-43
2024/03/05 04:54:35;;;;;;;;;;;9.70;84.00;;;;;;4997243;28;83541;-43
2024/03/05 04:57:01;;;;;;;;;;;9.70;84.50;;;;;;5005666;28;83632;-42
2024/03/05 04:59:27;;;;;;;;;;;9.60;84.00;;;;;;5011567;28;81962;-43
2024/03/05 05:01:53;;;;;;;;;;;9.70;84.00;;;;;;5013884;28;81890;-42
2024/03/05 05:04:19;;;;;;;;;;;9.60;84.10;;;;;;5004348;28;81861;-43
2024/03/05 05:06:44;;;;;;;;;;;9.60;84.00;;;;;;5002299;28;81991;-43
2024/03/05 05:09:10;;;;;;;;;;;9.60;84.20;;;;;;5007532;28;81950;-43
2024/03/05 05:11:36;;;;;;;;;;;9.60;84.30;;;;;;5014209;28;81186;-43
2024/03/05 05:14:02;;;;;;;;;;;9.60;84.20;;;;;;5009970;28;82144;-43
2024/03/05 05:16:28;;;;;;;;;;;9.60;84.20;;;;;;4994859;28;82325;-43
2024/03/05 05:18:54;;;;;;;;;;;9.60;84.20;;;;;;5005599;28;83757;-42
2024/03/05 05:21:20;;;;;;;;;;;9.60;84.10;;;;;;5011289;28;83341;-43
2024/03/05 05:23:46;;;;;;;;;;;9.60;84.20;;;;;;5000795;28;82226;-44
2024/03/05 05:26:12;;;;;;;;;;;9.50;84.80;;;;;;5002039;28;82438;-43
2024/03/05 05:28:40;;;;;;;;;;;9.50;84.20;;;;;;4998022;28;82291;-43
2024/03/05 05:31:08;;;;;;;;;;;9.50;84.30;;;;;;5010126;28;82433;-42
2024/03/05 05:33:33;;;;;;;;;;;9.40;84.30;;;;;;5005182;28;82749;-43
2024/03/05 05:35:59;;;;;;;;;;;9.50;84.40;;;;;;5005644;28;81745;-42
2024/03/05 05:38:24;;;;;;;;;;;9.50;84.20;;;;;;5000327;28;82029;-42
2024/03/05 05:40:50;;;;;;;;;;;9.50;84.30;;;;;;5003727;28;83134;-42
2024/03/05 05:43:15;;;;;;;;;;;9.40;84.20;;;;;;5008846;28;84199;-42
2024/03/05 05:45:41;;;;;;;;;;;9.40;84.30;;;;;;5012485;28;82108;-43
2024/03/05 05:48:23;;;;;;;;;;;9.40;84.20;;;;;;5013268;28;82401;-43
2024/03/05 05:50:55;;;;;;;;;;;9.40;84.20;;;;;;5000558;28;83811;-44
2024/03/05 05:53:20;;;;;;;;;;;9.40;84.40;;;;;;5007633;28;83858;-42
2024/03/05 05:55:46;;;;;;;;;;;9.40;84.40;;;;;;5018848;28;83823;-43
2024/03/05 05:58:13;;;;;;;;;;;9.40;84.40;;;;;;5017428;28;82001;-42
2024/03/05 06:00:39;;;;;;;;;;;9.30;84.40;;;;;;5005099;28;83014;-43
2024/03/05 06:03:08;;;;;;;;;;;9.30;84.40;;;;;;5008284;28;82714;-43
2024/03/05 06:05:37;;;;;;;;;;;9.30;84.40;;;;;;5015017;28;82033;-43
2024/03/05 06:08:03;;;;;;;;;;;9.30;84.40;;;;;;5023505;28;82925;-43
2024/03/05 06:10:29;;;;;;;;;;;9.30;85.00;;;;;;5001186;28;83321;-42
2024/03/05 06:12:55;;;;;;;;;;;9.30;84.40;;;;;;5011866;28;82781;-43
2024/03/05 06:15:21;;;;;;;;;;;9.40;84.30;;;;;;5008127;28;82472;-43
2024/03/05 06:17:46;;;;;;;;;;;9.30;84.40;;;;;;5018335;28;81935;-43
2024/03/05 06:20:13;;;;;;;;;;;9.30;84.20;;;;;;5009876;28;81906;-43
2024/03/05 06:22:44;;;;;;;;;;;9.30;84.40;;;;;;5005198;28;82689;-42
2024/03/05 06:25:12;;;;;;;;;;;9.30;84.40;;;;;;5006613;28;82570;-44
2024/03/05 06:27:38;;;;;;;;;;;9.30;84.50;;;;;;5017993;28;82208;-43
2024/03/05 06:30:07;;;;;;;;;;;9.30;84.60;;;;;;5007505;28;82537;-42
2024/03/05 06:32:43;;;;;;;;;;;9.30;84.50;;;;;;5000859;28;82947;-43
2024/03/05 06:35:11;;;;;;;;;;;9.30;84.30;;;;;;5007661;28;83147;-43
2024/03/05 06:37:40;;;;;;;;;;;9.30;84.60;;;;;;5018181;28;82120;-43
2024/03/05 06:40:09;;;;;;;;;;;9.30;84.50;;;;;;5009260;28;82722;-43
2024/03/05 06:42:35;;;;;;;;;;;9.30;84.40;;;;;;5004847;28;83574;-42
2024/03/05 06:45:06;;;;;;;;;;;9.30;84.50;;;;;;5006615;28;82124;-42
2024/03/05 06:47:38;;;;;;;;;;;9.30;84.40;;;;;;5008650;28;82866;-42
2024/03/05 06:50:07;;;;;;;;;;;9.20;84.40;;;;;;5005645;28;83121;-43
2024/03/05 06:58:04;;;;;;;;;;;9.30;84.50;;;;;;5012020;28;83373;-42
2024/03/05 07:00:30;;;;;;;;;;;9.30;84.50;;;;;;5008152;28;82939;-42
2024/03/05 07:02:55;;;;;;;;;;;9.20;84.50;;;;;;5004964;28;82272;-42
2024/03/05 07:05:22;;;;;;;;;;;9.20;84.60;;;;;;5005270;28;81927;-42
2024/03/05 07:07:48;;;;;;;;;;;9.20;84.40;;;;;;5004621;28;81954;-43
2024/03/05 07:10:14;;;;;;;;;;;9.30;84.40;;;;;;5010399;28;82631;-43
2024/03/05 07:12:40;;;;;;;;;;;9.20;84.50;;;;;;5007819;28;83149;-43
2024/03/05 07:15:09;;;;;;;;;;;9.20;84.60;;;;;;4996864;28;81618;-43
2024/03/05 07:17:35;;;;;;;;;;;9.20;84.50;;;;;;5007825;28;82524;-42
2024/03/05 07:20:03;;;;;;;;;;;9.20;84.60;;;;;;5013690;28;82128;-43
2024/03/05 07:22:29;;;;;;;;;;;9.30;84.50;;;;;;5009304;28;84377;-43
2024/03/05 07:24:55;;;;;;;;;;;9.20;84.40;;;;;;5015601;28;82320;-42
2024/03/05 07:27:20;;;;;;;;;;;9.30;84.50;;;;;;5003522;28;82920;-42
2024/03/05 07:29:46;;;;;;;;;;;9.20;84.50;;;;;;5003639;28;82018;-42
2024/03/05 07:32:15;;;;;;;;;;;9.30;84.50;;;;;;5011285;28;82257;-43
2024/03/05 07:34:41;;;;;;;;;;;9.20;84.60;;;;;;5018886;28;83126;-43
2024/03/05 07:37:06;;;;;;;;;;;9.30;84.60;;;;;;5002624;28;83807;-43
2024/03/05 07:39:32;;;;;;;;;;;9.20;84.40;;;;;;5002586;28;81692;-42
2024/03/05 07:41:58;;;;;;;;;;;9.30;84.50;;;;;;5008776;28;81946;-42
2024/03/05 07:44:23;;;;;;;;;;;9.30;84.60;;;;;;5014544;28;81996;-43
2024/03/05 07:46:49;;;;;;;;;;;9.30;84.70;;;;;;4999870;28;83535;-42
2024/03/05 07:49:15;;;;;;;;;;;9.20;84.70;;;;;;4999672;28;83217;-43
2024/03/05 07:51:40;;;;;;;;;;;9.30;84.80;;;;;;5002617;28;82978;-43
2024/03/05 07:54:06;;;;;;;;;;;9.30;84.80;;;;;;5018218;28;82983;-43
2024/03/05 07:56:32;;;;;;;;;;;9.30;84.90;;;;;;5009155;28;82643;-42
2024/03/05 07:58:57;;;;;;;;;;;9.20;84.80;;;;;;5003504;28;81999;-43
2024/03/05 08:01:24;;;;;;;;;;;9.30;84.80;;;;;;4997415;28;83662;-42
2024/03/05 08:03:49;;;;;;;;;;;9.30;84.70;;;;;;5018465;28;81924;-43
2024/03/05 08:06:15;;;;;;;;;;;9.30;84.60;;;;;;5020140;28;82294;-42
2024/03/05 08:08:41;;;;;;;;;;;9.30;84.60;;;;;;4999098;28;83712;-43
2024/03/05 08:11:07;;;;;;;;;;;9.30;84.60;;;;;;4998706;28;84827;-43
2024/03/05 08:13:36;;;;;;;;;;;9.30;84.70;;;;;;5004433;28;83924;-43
2024/03/05 08:16:04;;;;;;;;;;;9.30;84.70;;;;;;5013652;28;82337;-44
2024/03/05 08:18:30;;;;;;;;;;;9.30;84.70;;;;;;4999425;28;82576;-43
2024/03/05 08:20:55;;;;;;;;;;;9.30;84.70;;;;;;5003931;28;82310;-43
2024/03/05 08:23:22;;;;;;;;;;;9.30;84.80;;;;;;5011695;28;82329;-43
2024/03/05 08:25:48;;;;;;;;;;;9.30;84.80;;;;;;5004591;28;82849;-43
2024/03/05 08:28:13;;;;;;;;;;;9.20;84.80;;;;;;5002414;28;82695;-43
2024/03/05 08:30:42;;;;;;;;;;;9.30;84.80;;;;;;5002475;28;81949;-43
2024/03/05 08:33:07;;;;;;;;;;;9.30;84.80;;;;;;5005954;28;83017;-44
2024/03/05 08:35:33;;;;;;;;;;;9.30;84.70;;;;;;5005713;28;83572;-44
2024/03/05 08:37:59;;;;;;;;;;;9.30;84.70;;;;;;5002010;28;83006;-43
2024/03/05 08:40:25;;;;;;;;;;;9.30;84.80;;;;;;4998900;28;82261;-43
2024/03/05 08:42:52;;;;;;;;;;;9.30;84.70;;;;;;5005016;28;82663;-44
2024/03/05 08:45:19;;;;;;;;;;;9.30;84.70;;;;;;5008903;28;82234;-43
2024/03/05 08:47:47;;;;;;;;;;;9.40;84.70;;;;;;5005173;28;83499;-44
2024/03/05 08:50:12;;;;;;;;;;;9.30;84.70;;;;;;5003293;28;81911;-44
2024/03/05 08:52:38;;;;;;;;;;;9.30;84.70;;;;;;5002650;28;81804;-44
2024/03/05 08:55:05;;;;;;;;;;;9.30;84.80;;;;;;5005969;28;82456;-44
2024/03/05 08:57:31;;;;;;;;;;;9.30;84.90;;;;;;5009154;28;82224;-44
2024/03/05 08:59:59;;;;;;;;;;;9.30;84.90;;;;;;5013228;28;82833;-44
2024/03/05 09:02:25;;;;;;;;;;;9.30;84.80;;;;;;4996186;28;82584;-43
2024/03/05 09:04:51;;;;;;;;;;;9.30;84.90;;;;;;5006621;28;83808;-43
2024/03/05 09:07:17;;;;;;;;;;;9.30;84.80;;;;;;5003040;28;82047;-42
2024/03/05 09:09:43;;;;;;;;;;;9.30;84.80;;;;;;5023951;28;82021;-44
2024/03/05 09:12:12;;;;;;;;;;;9.30;84.90;;;;;;5008565;28;83400;-45
2024/03/05 09:14:38;;;;;;;;;;;9.30;84.90;;;;;;5004153;28;88658;-45
2024/03/05 09:17:05;;;;;;;;;;;9.30;84.90;;;;;;4998377;28;86396;-43
2024/03/05 09:19:31;;;;;;;;;;;9.30;84.80;;;;;;5014643;28;87105;-44
2024/03/05 09:21:57;;;;;;;;;;;9.30;84.80;;;;;;5013978;28;87505;-43
2024/03/05 09:24:22;;;;;;;;;;;9.30;84.80;;;;;;5003171;28;88952;-44
2024/03/05 09:26:48;;;;;;;;;;;9.30;84.80;;;;;;5003977;28;87747;-43
2024/03/05 09:29:14;;;;;;;;;;;9.30;84.80;;;;;;5011373;28;88358;-43
2024/03/05 09:31:40;;;;;;;;;;;9.30;84.90;;;;;;5008379;28;87062;-43
2024/03/05 09:34:06;;;;;;;;;;;9.30;84.80;;;;;;4992922;28;87429;-43
2024/03/05 09:36:31;;;;;;;;;;;9.30;84.90;;;;;;4994850;28;88107;-46
2024/03/05 09:38:57;;;;;;;;;;;9.30;85.00;;;;;;5010061;28;87450;-46
2024/03/05 09:41:24;;;;;;;;;;;9.30;84.90;;;;;;5009473;28;86861;-47
2024/03/05 09:43:50;;;;;;;;;;;9.30;84.90;;;;;;5001153;28;87446;-44
2024/03/05 09:46:17;;;;;;;;;;;9.40;85.00;;;;;;5001053;28;86925;-44
2024/03/05 09:48:43;;;;;;;;;;;9.40;85.00;;;;;;5006112;28;88302;-43
2024/03/05 09:51:09;;;;;;;;;;;9.40;85.00;;;;;;5020537;28;86953;-44
2024/03/05 09:53:35;;;;;;;;;;;9.40;84.90;;;;;;5014833;28;87418;-43
2024/03/05 09:56:04;;;;;;;;;;;9.40;85.00;;;;;;4995594;28;87319;-43
2024/03/05 09:58:38;;;;;;;;;;;9.40;85.00;;;;;;5003557;28;87885;-43
2024/03/05 10:01:05;;;;;;;;;;;9.40;85.10;;;;;;5007004;28;88651;-44
2024/03/05 10:03:32;;;;;;;;;;;9.40;85.10;;;;;;5001670;28;87258;-43
2024/03/05 10:05:57;;;;;;;;;;;9.40;85.20;;;;;;4998046;28;87848;-43
2024/03/05 10:08:23;;;;;;;;;;;9.40;85.20;;;;;;4999930;28;87494;-43
2024/03/05 10:10:57;;;;;;;;;;;9.50;85.20;;;;;;5010146;28;87345;-44
2024/03/05 10:13:24;;;;;;;;;;;9.50;85.20;;;;;;5010706;28;87929;-43
2024/03/05 10:15:50;;;;;;;;;;;9.50;85.20;;;;;;5011891;28;87414;-44
2024/03/05 10:18:29;;;;;;;;;;;9.50;85.30;;;;;;4993382;28;87127;-45
2024/03/05 10:20:54;;;;;;;;;;;9.50;85.80;;;;;;5001493;28;89340;-43
2024/03/05 10:23:20;;;;;;;;;;;9.60;85.20;;;;;;5004406;28;87591;-45
2024/03/05 10:25:46;;;;;;;;;;;9.50;85.20;;;;;;5002262;28;88355;-45
2024/03/05 10:28:18;;;;;;;;;;;9.50;85.30;;;;;;5000963;28;86934;-45
2024/03/05 10:30:46;;;;;;;;;;;9.50;85.30;;;;;;5004881;28;86413;-44
2024/03/05 10:33:12;;;;;;;;;;;9.50;85.40;;;;;;5002800;28;88850;-43
2024/03/05 10:35:38;;;;;;;;;;;9.60;85.50;;;;;;5009048;28;87065;-44
2024/03/05 10:38:08;;;;;;;;;;;9.50;85.40;;;;;;5003761;28;88213;-44
2024/03/05 10:40:37;;;;;;;;;;;9.50;85.50;;;;;;5001466;28;87599;-44
2024/03/05 10:43:04;;;;;;;;;;;9.50;85.60;;;;;;5004654;28;87054;-44
2024/03/05 10:45:31;;;;;;;;;;;9.60;85.70;;;;;;5005369;28;87302;-45
2024/03/05 10:47:57;;;;;;;;;;;9.60;85.70;;;;;;5018035;28;87480;-44
2024/03/05 10:50:25;;;;;;;;;;;9.60;85.80;;;;;;5001044;28;87599;-45
2024/03/05 10:52:51;;;;;;;;;;;9.60;85.80;;;;;;4997903;28;87768;-44
2024/03/05 10:55:17;;;;;;;;;;;9.60;85.90;;;;;;5002559;28;87719;-43
2024/03/05 11:00:27;;;;;;;;;;;9.60;86.00;;;;;;4998068;28;87290;-43
2024/03/05 11:02:55;;;;;;;;;;;9.60;85.90;;;;;;4997048;28;88071;-43
2024/03/05 11:05:21;;;;;;;;;;;9.60;85.90;;;;;;5007619;28;87641;-44
2024/03/05 11:07:47;;;;;;;;;;;9.60;86.00;;;;;;5010256;28;88937;-43
2024/03/05 11:10:13;;;;;;;;;;;9.70;86.00;;;;;;5006127;28;87591;-43
2024/03/05 11:12:40;;;;;;;;;;;9.70;85.90;;;;;;5002546;28;87000;-43
2024/03/05 11:15:11;;;;;;;;;;;9.70;86.00;;;;;;5003257;28;88372;-44
2024/03/05 11:17:36;;;;;;;;;;;9.70;86.00;;;;;;5018753;28;87678;-43
2024/03/05 11:20:03;;;;;;;;;;;9.70;86.00;;;;;;5009738;28;87529;-43
2024/03/05 11:22:29;;;;;;;;;;;9.70;86.00;;;;;;4997533;28;87101;-44
2024/03/05 11:25:02;;;;;;;;;;;9.70;86.10;;;;;;5004903;28;88085;-43
2024/03/05 11:27:29;;;;;;;;;;;9.70;86.10;;;;;;5010186;28;88649;-43
2024/03/05 11:30:06;;;;;;;;;;;9.70;86.20;;;;;;5005481;28;87057;-43
2024/03/05 11:32:39;;;;;;;;;;;9.70;86.10;;;;;;4998551;28;87660;-44
2024/03/05 11:35:07;;;;;;;;;;;9.70;86.10;;;;;;4999348;28;87369;-44
2024/03/05 11:37:52;;;;;;;;;;;9.80;86.10;;;;;;5008875;28;87118;-44
2024/03/05 11:40:28;;;;;;;;;;;9.80;86.10;;;;;;5002156;28;87064;-43
2024/03/05 11:42:54;;;;;;;;;;;9.80;86.10;;;;;;4991626;28;87015;-44
2024/03/05 11:45:39;;;;;;;;;;;9.80;86.10;;;;;;4999911;28;86802;-43
2024/03/05 11:48:05;;;;;;;;;;;9.80;86.10;;;;;;5004008;28;88568;-44
2024/03/05 11:50:31;;;;;;;;;;;9.80;86.10;;;;;;5002949;28;87583;-44
2024/03/05 11:52:57;;;;;;;;;;;9.80;86.10;;;;;;5004917;28;88212;-43
2024/03/05 11:55:25;;;;;;;;;;;9.80;86.10;;;;;;4996697;28;87603;-44
2024/03/05 11:57:57;;;;;;;;;;;9.90;86.00;;;;;;5002456;28;88708;-43
2024/03/05 12:00:23;;;;;;;;;;;9.90;86.00;;;;;;5000378;28;88813;-42
2024/03/05 12:02:57;;;;;;;;;;;9.90;85.90;;;;;;5014539;28;87643;-43
2024/03/05 12:05:23;;;;;;;;;;;9.90;85.90;;;;;;5004530;28;87818;-43
2024/03/05 12:07:56;;;;;;;;;;;9.90;86.00;;;;;;5008278;28;88608;-43
2024/03/05 12:10:26;;;;;;;;;;;9.90;86.00;;;;;;5005636;28;86406;-43
2024/03/05 12:12:51;;;;;;;;;;;10.00;86.00;;;;;;5006881;28;87797;-43
2024/03/05 12:15:19;;;;;;;;;;;10.00;85.90;;;;;;5004506;28;88565;-44
2024/03/05 12:17:44;;;;;;;;;;;10.00;85.90;;;;;;4995639;28;88633;-43
2024/03/05 12:20:13;;;;;;;;;;;10.00;85.90;;;;;;4994077;28;87724;-44
2024/03/05 12:22:47;;;;;;;;;;;10.00;85.80;;;;;;5008051;28;87489;-43
2024/03/05 12:25:14;;;;;;;;;;;10.10;85.90;;;;;;5016452;28;87032;-43
2024/03/05 12:27:39;;;;;;;;;;;10.00;85.60;;;;;;4998223;28;87926;-43
2024/03/05 12:30:06;;;;;;;;;;;10.00;85.70;;;;;;4999426;28;86956;-44
2024/03/05 12:32:36;;;;;;;;;;;10.10;85.70;;;;;;5010560;28;88330;-44
2024/03/05 12:35:04;;;;;;;;;;;10.10;85.60;;;;;;5013543;28;87107;-43
2024/03/05 12:37:30;;;;;;;;;;;10.10;85.40;;;;;;4992605;28;87678;-43
2024/03/05 12:39:59;;;;;;;;;;;10.10;85.40;;;;;;5002581;28;87706;-43
2024/03/05 12:42:25;;;;;;;;;;;10.10;85.40;;;;;;5005682;28;88544;-43
2024/03/05 12:45:01;;;;;;;;;;;10.20;85.50;;;;;;5015788;28;87873;-43
2024/03/05 12:47:27;;;;;;;;;;;10.20;85.50;;;;;;4991759;28;87627;-43
2024/03/05 12:49:52;;;;;;;;;;;10.20;85.40;;;;;;4994942;28;87062;-43
2024/03/05 12:52:19;;;;;;;;;;;10.20;85.40;;;;;;5005903;28;87703;-43
2024/03/05 12:54:45;;;;;;;;;;;10.20;85.50;;;;;;5001045;28;87816;-43
2024/03/05 12:57:11;;;;;;;;;;;10.20;85.50;;;;;;4997704;28;88392;-43
2024/03/05 12:59:40;;;;;;;;;;;10.20;85.20;;;;;;4999474;28;88667;-44
2024/03/05 13:02:06;;;;;;;;;;;10.20;85.20;;;;;;5000150;28;88639;-43
2024/03/05 13:04:33;;;;;;;;;;;10.20;85.20;;;;;;4996453;28;87060;-44
2024/03/05 13:06:59;;;;;;;;;;;10.20;85.20;;;;;;5002535;28;87986;-43
2024/03/05 13:09:24;;;;;;;;;;;10.20;85.00;;;;;;4999529;28;87329;-43
2024/03/05 13:11:51;;;;;;;;;;;10.20;85.30;;;;;;5005181;28;86916;-44
2024/03/05 13:14:17;;;;;;;;;;;10.20;85.20;;;;;;4995419;28;88065;-44
2024/03/05 13:16:43;;;;;;;;;;;10.20;85.20;;;;;;5005137;28;87915;-44
2024/03/05 13:19:12;;;;;;;;;;;10.20;85.20;;;;;;5004305;28;88246;-47
2024/03/05 13:21:41;;;;;;;;;;;10.20;85.30;;;;;;5002873;28;87641;-43
2024/03/05 13:24:10;;;;;;;;;;;10.20;85.30;;;;;;5000809;28;86505;-43
2024/03/05 13:26:48;;;;;;;;;;;10.30;85.20;;;;;;5002337;28;87563;-43
2024/03/05 13:29:14;;;;;;;;;;;10.20;85.20;;;;;;5009430;28;87450;-43
2024/03/05 13:31:42;;;;;;;;;;;10.30;85.20;;;;;;4996895;28;88340;-43
2024/03/05 13:34:08;;;;;;;;;;;10.30;85.00;;;;;;5002509;28;88757;-44
2024/03/05 13:36:37;;;;;;;;;;;10.30;85.00;;;;;;4999078;28;87038;-44
2024/03/05 13:39:10;;;;;;;;;;;10.30;85.10;;;;;;5017208;28;88149;-44
2024/03/05 13:41:39;;;;;;;;;;;10.30;85.00;;;;;;4998733;28;88007;-44
2024/03/05 13:44:05;;;;;;;;;;;10.30;85.00;;;;;;4997355;28;87017;-43
2024/03/05 13:46:31;;;;;;;;;;;10.40;84.90;;;;;;5000935;28;87842;-43
2024/03/05 13:48:58;;;;;;;;;;;10.40;84.60;;;;;;5013443;28;86188;-43
2024/03/05 13:51:26;;;;;;;;;;;10.40;84.60;;;;;;5008275;28;87534;-43
2024/03/05 13:53:51;;;;;;;;;;;10.40;84.60;;;;;;5001806;28;87688;-44
2024/03/05 13:56:17;;;;;;;;;;;10.40;84.60;;;;;;4998607;28;87967;-43
2024/03/05 13:58:44;;;;;;;;;;;10.40;84.60;;;;;;5009610;28;87902;-43
2024/03/05 14:01:11;;;;;;;;;;;10.50;84.50;;;;;;4999208;28;87728;-43
2024/03/05 14:03:37;;;;;;;;;;;10.50;84.50;;;;;;4999815;28;87004;-43
2024/03/05 14:06:04;;;;;;;;;;;10.50;84.50;;;;;;4997903;28;87811;-44
2024/03/05 14:08:30;;;;;;;;;;;10.50;84.40;;;;;;5009379;28;88560;-43
2024/03/05 14:10:56;;;;;;;;;;;10.50;84.30;;;;;;5015848;28;87036;-43
2024/03/05 14:13:22;;;;;;;;;;;10.50;84.10;;;;;;5006578;28;86895;-44
2024/03/05 14:15:52;;;;;;;;;;;10.50;83.90;;;;;;5006042;28;87311;-45
2024/03/05 14:18:18;;;;;;;;;;;10.50;84.00;;;;;;5008941;28;86972;-45
2024/03/05 14:20:44;;;;;;;;;;;10.60;84.00;;;;;;5014939;28;88657;-44
2024/03/05 14:23:11;;;;;;;;;;;10.60;84.00;;;;;;5004593;28;87100;-44
2024/03/05 14:25:37;;;;;;;;;;;10.60;83.80;;;;;;5003488;28;86935;-44
2024/03/05 14:28:03;;;;;;;;;;;10.50;83.90;;;;;;5006814;28;87833;-43
2024/03/05 14:30:29;;;;;;;;;;;10.50;83.70;;;;;;5011771;28;87868;-44